createdAt,value
2022-10-01T00:00:26.342Z,65.08
2022-10-01T00:01:26.370Z,63.43
2022-10-01T00:02:26.330Z,63.79
2022-10-01T00:03:26.289Z,63.68
2022-10-01T00:04:26.291Z,62.78
2022-10-01T00:05:26.311Z,60.59
2022-10-01T00:06:26.269Z,57.85
2022-10-01T00:07:26.256Z,59.81
2022-10-01T00:08:26.268Z,62.74
2022-10-01T00:09:26.232Z,62.71
2022-10-01T00:10:26.252Z,63.24
2022-10-01T00:11:26.216Z,59.87
2022-10-01T00:12:26.258Z,58.23
2022-10-01T00:13:26.206Z,59.55
2022-10-01T00:14:26.174Z,63.03
2022-10-01T00:15:26.190Z,62.56
2022-10-01T00:16:26.202Z,62.41
2022-10-01T00:17:26.150Z,63.50
2022-10-01T00:18:26.142Z,62.79
2022-10-01T00:19:26.124Z,62.09
2022-10-01T00:20:27.137Z,60.96
2022-10-01T00:21:26.133Z,61.39
2022-10-01T00:22:26.096Z,63.50
2022-10-01T00:23:26.102Z,58.77
2022-10-01T00:24:26.085Z,63.39
2022-10-01T00:25:26.080Z,63.48
2022-10-01T00:26:26.100Z,63.56
2022-10-01T00:27:26.026Z,59.88
2022-10-01T00:28:26.092Z,62.42
2022-10-01T00:29:26.022Z,61.47
2022-10-01T00:30:25.993Z,63.23
2022-10-01T00:31:26.089Z,60.89
2022-10-01T00:32:26.031Z,61.77
2022-10-01T00:33:25.953Z,62.51
2022-10-01T00:34:25.946Z,65.70
2022-10-01T00:35:25.954Z,61.60
2022-10-01T00:36:25.921Z,61.94
2022-10-01T00:37:25.928Z,63.73
2022-10-01T00:38:25.909Z,63.62
2022-10-01T00:39:25.902Z,64.37
2022-10-01T00:40:25.881Z,61.42
2022-10-01T00:41:25.890Z,59.13
2022-10-01T00:42:25.894Z,63.13
2022-10-01T00:43:25.847Z,63.06
2022-10-01T00:44:25.841Z,62.65
2022-10-01T00:45:25.827Z,64.06
2022-10-01T00:46:25.816Z,65.02
2022-10-01T00:47:25.830Z,61.95
2022-10-01T00:48:25.789Z,64.39
2022-10-01T00:49:25.762Z,63.39
2022-10-01T00:50:25.784Z,61.66
2022-10-01T00:51:26.744Z,62.74
2022-10-01T00:52:25.740Z,63.12
2022-10-01T00:53:25.817Z,63.52
2022-10-01T00:54:25.722Z,61.60
2022-10-01T00:55:25.712Z,63.58
2022-10-01T00:56:25.706Z,62.80
2022-10-01T00:57:25.687Z,64.00
2022-10-01T00:58:25.715Z,62.63
2022-10-01T00:59:25.676Z,61.49
2022-10-01T01:00:25.657Z,62.37
2022-10-01T01:01:25.686Z,59.43
2022-10-01T01:02:25.725Z,63.05
2022-10-01T01:03:25.608Z,63.15
2022-10-01T01:04:25.638Z,60.67
2022-10-01T01:05:25.620Z,60.66
2022-10-01T01:06:25.578Z,60.65
2022-10-01T01:07:25.591Z,62.25
2022-10-01T01:08:25.579Z,59.75
2022-10-01T01:09:25.592Z,63.13
2022-10-01T01:10:25.594Z,64.24
2022-10-01T01:11:25.543Z,63.21
2022-10-01T01:12:25.524Z,59.30
2022-10-01T01:13:25.522Z,63.90
2022-10-01T01:14:25.541Z,62.57
2022-10-01T01:15:25.507Z,61.84
2022-10-01T01:16:25.513Z,62.92
2022-10-01T01:17:25.468Z,63.02
2022-10-01T01:18:25.458Z,64.40
2022-10-01T01:19:25.462Z,63.06
2022-10-01T01:20:25.460Z,62.13
2022-10-01T01:21:25.429Z,62.30
2022-10-01T01:22:25.407Z,66.23
2022-10-01T01:23:25.398Z,64.61
2022-10-01T01:24:25.391Z,61.17
2022-10-01T01:25:25.529Z,63.34
2022-10-01T01:26:25.356Z,62.60
2022-10-01T01:27:25.707Z,56.57
2022-10-01T01:28:25.391Z,63.22
2022-10-01T01:29:25.331Z,64.98
2022-10-01T01:30:25.363Z,65.38
2022-10-01T01:31:25.382Z,63.97
2022-10-01T01:32:25.295Z,63.48
2022-10-01T01:33:25.292Z,62.22
2022-10-01T01:34:25.283Z,63.71
2022-10-01T01:35:25.265Z,62.55
2022-10-01T01:36:25.586Z,62.59
2022-10-01T01:37:25.262Z,61.17
2022-10-01T01:38:25.233Z,61.39
2022-10-01T01:39:25.238Z,64.01
2022-10-01T01:40:25.218Z,61.27
2022-10-01T01:41:25.241Z,60.62
2022-10-01T01:42:25.231Z,60.27
2022-10-01T01:43:25.162Z,62.26
2022-10-01T01:44:26.164Z,63.37
2022-10-01T01:45:25.145Z,63.94
2022-10-01T01:46:25.181Z,61.83
2022-10-01T01:47:25.127Z,61.73
2022-10-01T01:48:25.106Z,61.85
2022-10-01T01:49:25.114Z,59.43
2022-10-01T01:50:25.095Z,65.22
2022-10-01T01:51:25.073Z,62.84
2022-10-01T01:52:25.117Z,62.83
2022-10-01T01:53:25.053Z,63.43
2022-10-01T01:54:25.042Z,63.54
2022-10-01T01:55:25.038Z,62.09
2022-10-01T01:56:26.024Z,64.13
2022-10-01T01:57:25.044Z,61.31
2022-10-01T01:58:25.014Z,63.29
2022-10-01T01:59:25.002Z,59.55
2022-10-01T02:00:24.985Z,62.73
2022-10-01T02:01:25.034Z,62.41
2022-10-01T02:02:25.017Z,63.05
2022-10-01T02:03:24.953Z,63.05
2022-10-01T02:04:24.949Z,63.40
2022-10-01T02:05:24.933Z,64.40
2022-10-01T02:06:24.944Z,63.39
2022-10-01T02:07:24.983Z,64.00
2022-10-01T02:08:24.904Z,62.84
2022-10-01T02:09:24.894Z,64.86
2022-10-01T02:10:24.928Z,61.38
2022-10-01T02:11:24.881Z,61.87
2022-10-01T02:12:24.875Z,62.88
2022-10-01T02:13:24.884Z,62.20
2022-10-01T02:14:24.834Z,62.43
2022-10-01T02:15:24.820Z,62.77
2022-10-01T02:16:24.862Z,66.06
2022-10-01T02:17:24.803Z,61.69
2022-10-01T02:18:24.816Z,63.94
2022-10-01T02:19:24.780Z,62.62
2022-10-01T02:20:24.770Z,62.64
2022-10-01T02:21:24.743Z,62.66
2022-10-01T02:22:25.413Z,64.46
2022-10-01T02:23:24.757Z,61.08
2022-10-01T02:24:24.716Z,62.45
2022-10-01T02:25:24.712Z,63.14
2022-10-01T02:26:24.705Z,62.70
2022-10-01T02:27:24.686Z,63.33
2022-10-01T02:28:24.738Z,64.55
2022-10-01T02:29:24.659Z,63.75
2022-10-01T02:30:24.635Z,63.26
2022-10-01T02:31:25.301Z,63.39
2022-10-01T02:32:24.625Z,64.04
2022-10-01T02:33:24.649Z,64.38
2022-10-01T02:34:24.603Z,64.00
2022-10-01T02:35:24.584Z,62.45
2022-10-01T02:36:24.583Z,62.40
2022-10-01T02:37:24.569Z,63.29
2022-10-01T02:38:24.598Z,64.31
2022-10-01T02:39:24.550Z,64.15
2022-10-01T02:40:24.525Z,62.93
2022-10-01T02:41:24.516Z,63.68
2022-10-01T02:42:24.516Z,65.05
2022-10-01T02:43:24.488Z,62.91
2022-10-01T02:44:24.547Z,63.75
2022-10-01T02:45:24.488Z,64.72
2022-10-01T02:46:24.489Z,63.70
2022-10-01T02:47:24.454Z,60.84
2022-10-01T02:48:24.453Z,64.72
2022-10-01T02:49:28.583Z,63.63
2022-10-01T02:50:24.421Z,61.40
2022-10-01T02:51:24.413Z,65.01
2022-10-01T02:52:24.399Z,65.39
2022-10-01T02:53:24.382Z,64.17
2022-10-01T02:54:24.386Z,65.45
2022-10-01T02:55:24.397Z,62.72
2022-10-01T02:56:24.368Z,61.07
2022-10-01T02:57:24.372Z,62.71
2022-10-01T02:58:24.351Z,64.90
2022-10-01T02:59:24.326Z,64.79
2022-10-01T03:00:24.382Z,64.79
2022-10-01T03:01:24.365Z,60.69
2022-10-01T03:02:24.352Z,63.48
2022-10-01T03:03:24.298Z,64.62
2022-10-01T03:04:24.280Z,64.73
2022-10-01T03:05:24.301Z,62.75
2022-10-01T03:06:24.255Z,62.79
2022-10-01T03:07:24.234Z,61.91
2022-10-01T03:08:24.245Z,64.29
2022-10-01T03:09:24.226Z,63.97
2022-10-01T03:10:24.207Z,61.89
2022-10-01T03:11:24.268Z,66.20
2022-10-01T03:12:25.197Z,63.39
2022-10-01T03:13:24.180Z,63.15
2022-10-01T03:14:24.195Z,62.45
2022-10-01T03:15:24.156Z,64.96
2022-10-01T03:16:24.205Z,62.69
2022-10-01T03:17:24.147Z,63.84
2022-10-01T03:18:24.122Z,65.64
2022-10-01T03:19:24.118Z,63.34
2022-10-01T03:20:24.112Z,63.98
2022-10-01T03:21:24.084Z,64.80
2022-10-01T03:22:24.125Z,64.60
2022-10-01T03:23:24.124Z,62.82
2022-10-01T03:24:24.076Z,62.04
2022-10-01T03:25:24.046Z,65.22
2022-10-01T03:26:24.031Z,64.42
2022-10-01T03:27:24.097Z,62.39
2022-10-01T03:28:24.027Z,64.32
2022-10-01T03:29:24.002Z,67.23
2022-10-01T03:30:24.010Z,64.54
2022-10-01T03:31:24.060Z,64.11
2022-10-01T03:32:24.005Z,64.06
2022-10-01T03:33:23.994Z,63.47
2022-10-01T03:34:23.950Z,64.99
2022-10-01T03:35:23.930Z,64.62
2022-10-01T03:36:23.938Z,64.84
2022-10-01T03:37:23.910Z,66.93
2022-10-01T03:38:24.931Z,63.46
2022-10-01T03:39:23.898Z,64.24
2022-10-01T03:40:23.897Z,62.02
2022-10-01T03:41:23.874Z,65.07
2022-10-01T03:42:23.864Z,65.36
2022-10-01T03:43:23.879Z,64.68
2022-10-01T03:44:23.816Z,64.38
2022-10-01T03:45:23.858Z,65.57
2022-10-01T03:46:23.806Z,67.17
2022-10-01T03:47:23.787Z,65.84
2022-10-01T03:48:23.809Z,64.34
2022-10-01T03:49:23.783Z,63.95
2022-10-01T03:50:23.754Z,67.91
2022-10-01T03:51:23.746Z,65.77
2022-10-01T03:52:23.723Z,64.51
2022-10-01T03:53:24.742Z,64.23
2022-10-01T03:54:23.700Z,63.00
2022-10-01T03:55:23.686Z,63.89
2022-10-01T03:56:23.674Z,65.42
2022-10-01T03:57:23.682Z,66.81
2022-10-01T03:58:23.667Z,66.44
2022-10-01T03:59:23.688Z,64.93
2022-10-01T04:00:23.641Z,66.12
2022-10-01T04:01:23.789Z,65.19
2022-10-01T04:02:23.722Z,65.16
2022-10-01T04:03:23.607Z,64.71
2022-10-01T04:04:23.642Z,65.24
2022-10-01T04:05:23.585Z,65.34
2022-10-01T04:06:23.575Z,64.99
2022-10-01T04:07:23.567Z,67.58
2022-10-01T04:08:24.515Z,66.35
2022-10-01T04:09:23.539Z,64.97
2022-10-01T04:10:23.559Z,63.61
2022-10-01T04:11:23.523Z,63.92
2022-10-01T04:12:23.506Z,65.53
2022-10-01T04:13:23.517Z,66.51
2022-10-01T04:14:23.488Z,65.28
2022-10-01T04:15:23.517Z,68.09
2022-10-01T04:16:23.629Z,66.86
2022-10-01T04:17:23.454Z,64.53
2022-10-01T04:18:23.442Z,65.44
2022-10-01T04:19:23.417Z,67.05
2022-10-01T04:20:23.438Z,65.48
2022-10-01T04:21:23.491Z,67.30
2022-10-01T04:22:23.396Z,65.73
2022-10-01T04:23:23.381Z,66.77
2022-10-01T04:24:23.384Z,67.97
2022-10-01T04:25:23.366Z,67.66
2022-10-01T04:26:23.373Z,67.78
2022-10-01T04:27:23.354Z,65.86
2022-10-01T04:28:23.383Z,64.22
2022-10-01T04:29:23.325Z,66.84
2022-10-01T04:30:23.319Z,67.07
2022-10-01T04:31:23.385Z,67.38
2022-10-01T04:32:23.288Z,64.87
2022-10-01T04:33:23.728Z,66.14
2022-10-01T04:34:23.283Z,67.81
2022-10-01T04:35:23.276Z,64.02
2022-10-01T04:36:23.248Z,65.05
2022-10-01T04:37:23.247Z,67.42
2022-10-01T04:38:23.230Z,64.84
2022-10-01T04:39:23.231Z,66.73
2022-10-01T04:40:23.217Z,64.02
2022-10-01T04:41:23.221Z,67.73
2022-10-01T04:42:23.200Z,62.98
2022-10-01T04:43:23.174Z,66.81
2022-10-01T04:44:23.184Z,68.56
2022-10-01T04:45:23.149Z,67.22
2022-10-01T04:46:23.213Z,66.28
2022-10-01T04:47:23.208Z,66.48
2022-10-01T04:48:23.121Z,64.60
2022-10-01T04:49:23.106Z,67.60
2022-10-01T04:50:23.103Z,67.66
2022-10-01T04:51:23.083Z,66.50
2022-10-01T04:52:23.121Z,67.42
2022-10-01T04:53:23.078Z,65.34
2022-10-01T04:54:23.056Z,66.79
2022-10-01T04:55:23.049Z,66.55
2022-10-01T04:56:23.026Z,66.98
2022-10-01T04:57:23.042Z,67.95
2022-10-01T04:58:23.019Z,67.05
2022-10-01T04:59:23.008Z,64.73
2022-10-01T05:00:22.975Z,66.06
2022-10-01T05:01:23.044Z,66.59
2022-10-01T05:02:22.986Z,66.53
2022-10-01T05:03:22.981Z,66.72
2022-10-01T05:04:22.944Z,66.27
2022-10-01T05:05:22.941Z,64.74
2022-10-01T05:06:22.907Z,67.04
2022-10-01T05:07:22.896Z,67.53
2022-10-01T05:08:22.910Z,67.15
2022-10-01T05:09:22.870Z,67.00
2022-10-01T05:10:22.868Z,66.45
2022-10-01T05:11:22.879Z,65.96
2022-10-01T05:12:24.628Z,68.57
2022-10-01T05:13:22.830Z,67.43
2022-10-01T05:14:22.864Z,68.77
2022-10-01T05:15:22.808Z,67.43
2022-10-01T05:16:23.193Z,68.33
2022-10-01T05:17:22.790Z,68.62
2022-10-01T05:18:22.781Z,66.19
2022-10-01T05:19:25.292Z,67.31
2022-10-01T05:20:22.733Z,68.46
2022-10-01T05:21:22.723Z,70.86
2022-10-01T05:22:22.723Z,70.02
2022-10-01T05:23:23.383Z,68.70
2022-10-01T05:24:24.086Z,69.61
2022-10-01T05:25:23.094Z,68.49
2022-10-01T05:26:22.731Z,67.37
2022-10-01T05:27:22.703Z,69.33
2022-10-01T05:28:24.585Z,69.26
2022-10-01T05:29:22.675Z,66.62
2022-10-01T05:30:23.511Z,70.58
2022-10-01T05:31:22.721Z,68.32
2022-10-01T05:32:22.648Z,68.08
2022-10-01T05:33:22.632Z,67.66
2022-10-01T05:34:22.603Z,67.99
2022-10-01T05:35:22.656Z,68.21
2022-10-01T05:36:22.574Z,69.26
2022-10-01T05:37:23.967Z,68.41
2022-10-01T05:38:22.596Z,66.47
2022-10-01T05:39:22.574Z,68.37
2022-10-01T05:40:22.558Z,68.30
2022-10-01T05:41:22.553Z,68.30
2022-10-01T05:42:22.539Z,67.05
2022-10-01T05:43:22.505Z,68.96
2022-10-01T05:44:22.487Z,68.00
2022-10-01T05:45:22.500Z,68.65
2022-10-01T05:46:22.485Z,66.91
2022-10-01T05:47:22.492Z,66.70
2022-10-01T05:48:22.479Z,66.88
2022-10-01T05:49:22.450Z,67.57
2022-10-01T05:50:22.646Z,69.19
2022-10-01T05:51:22.492Z,69.98
2022-10-01T05:52:22.434Z,68.80
2022-10-01T05:53:22.404Z,69.51
2022-10-01T05:54:22.411Z,67.92
2022-10-01T05:55:22.379Z,67.92
2022-10-01T05:56:22.421Z,70.11
2022-10-01T05:57:22.360Z,68.48
2022-10-01T05:58:22.361Z,67.44
2022-10-01T05:59:22.347Z,70.05
2022-10-01T06:00:22.321Z,69.01
2022-10-01T06:01:22.313Z,69.30
2022-10-01T06:02:22.526Z,69.68
2022-10-01T06:03:22.353Z,72.99
2022-10-01T06:04:22.297Z,67.47
2022-10-01T06:05:22.289Z,69.19
2022-10-01T06:06:22.261Z,70.94
2022-10-01T06:07:22.340Z,70.08
2022-10-01T06:08:22.243Z,70.33
2022-10-01T06:09:22.216Z,71.04
2022-10-01T06:10:22.218Z,69.63
2022-10-01T06:11:22.870Z,70.13
2022-10-01T06:12:23.215Z,69.02
2022-10-01T06:13:22.214Z,67.76
2022-10-01T06:14:22.176Z,68.16
2022-10-01T06:15:22.165Z,68.82
2022-10-01T06:16:22.254Z,69.36
2022-10-01T06:17:22.136Z,68.60
2022-10-01T06:18:22.154Z,68.06
2022-10-01T06:19:22.133Z,70.44
2022-10-01T06:20:22.704Z,70.14
2022-10-01T06:21:22.106Z,71.17
2022-10-01T06:22:22.144Z,70.15
2022-10-01T06:23:22.102Z,67.50
2022-10-01T06:24:22.303Z,68.39
2022-10-01T06:25:22.485Z,68.50
2022-10-01T06:26:22.054Z,70.77
2022-10-01T06:27:22.050Z,69.17
2022-10-01T06:28:22.203Z,71.09
2022-10-01T06:29:22.014Z,69.84
2022-10-01T06:30:22.015Z,67.97
2022-10-01T06:31:22.045Z,69.84
2022-10-01T06:32:21.979Z,65.89
2022-10-01T06:33:22.006Z,69.83
2022-10-01T06:34:22.051Z,69.07
2022-10-01T06:35:21.944Z,72.10
2022-10-01T06:36:21.933Z,70.18
2022-10-01T06:37:21.936Z,69.87
2022-10-01T06:38:21.962Z,67.97
2022-10-01T06:39:21.932Z,70.38
2022-10-01T06:40:21.907Z,69.55
2022-10-01T06:41:21.876Z,69.93
2022-10-01T06:42:21.881Z,68.99
2022-10-01T06:43:21.901Z,69.46
2022-10-01T06:44:21.891Z,69.79
2022-10-01T06:45:21.848Z,67.80
2022-10-01T06:46:21.899Z,68.90
2022-10-01T06:47:21.833Z,70.66
2022-10-01T06:48:23.032Z,69.83
2022-10-01T06:49:21.834Z,71.09
2022-10-01T06:50:21.889Z,69.21
2022-10-01T06:51:21.782Z,69.16
2022-10-01T06:52:21.757Z,69.19
2022-10-01T06:53:21.774Z,68.68
2022-10-01T06:54:21.771Z,68.34
2022-10-01T06:55:21.723Z,67.69
2022-10-01T06:56:21.711Z,68.84
2022-10-01T06:57:22.716Z,72.14
2022-10-01T06:58:21.721Z,68.93
2022-10-01T06:59:21.693Z,68.94
2022-10-01T07:00:21.661Z,69.86
2022-10-01T07:01:21.691Z,68.87
2022-10-01T07:02:21.746Z,68.92
2022-10-01T07:03:21.650Z,67.85
2022-10-01T07:04:21.694Z,69.30
2022-10-01T07:05:21.629Z,69.06
2022-10-01T07:06:21.637Z,69.10
2022-10-01T07:07:21.580Z,67.41
2022-10-01T07:08:21.623Z,68.52
2022-10-01T07:09:21.603Z,69.49
2022-10-01T07:10:21.562Z,68.45
2022-10-01T07:11:21.561Z,70.91
2022-10-01T07:12:21.529Z,71.62
2022-10-01T07:13:21.552Z,70.67
2022-10-01T07:14:21.567Z,70.61
2022-10-01T07:15:21.492Z,70.09
2022-10-01T07:16:21.524Z,70.07
2022-10-01T07:17:21.477Z,70.61
2022-10-01T07:18:21.491Z,70.26
2022-10-01T07:19:21.491Z,70.72
2022-10-01T07:20:21.437Z,70.34
2022-10-01T07:21:21.437Z,68.96
2022-10-01T07:22:21.443Z,69.37
2022-10-01T07:23:21.431Z,69.63
2022-10-01T07:24:21.416Z,68.64
2022-10-01T07:25:21.404Z,70.04
2022-10-01T07:26:21.376Z,70.48
2022-10-01T07:27:21.376Z,71.01
2022-10-01T07:28:21.455Z,70.10
2022-10-01T07:29:21.351Z,68.42
2022-10-01T07:30:21.369Z,71.53
2022-10-01T07:36:22.473Z,70.00
2022-10-01T07:37:22.401Z,69.62
2022-10-01T07:38:22.441Z,71.33
2022-10-01T07:39:22.377Z,70.57
2022-10-01T07:40:22.420Z,70.09
2022-10-01T07:41:22.367Z,68.72
2022-10-01T07:42:22.347Z,69.69
2022-10-01T07:43:22.323Z,69.91
2022-10-01T07:44:22.333Z,70.23
2022-10-01T07:45:22.300Z,70.78
2022-10-01T07:46:22.407Z,71.18
2022-10-01T07:47:22.277Z,67.53
2022-10-01T07:48:22.291Z,68.85
2022-10-01T07:49:22.257Z,68.15
2022-10-01T07:50:22.251Z,70.54
2022-10-01T07:51:22.230Z,70.08
2022-10-01T07:52:33.063Z,71.81
2022-10-01T07:53:22.292Z,71.34
2022-10-01T07:54:22.261Z,71.84
2022-10-01T07:55:22.192Z,69.38
2022-10-01T07:56:22.183Z,71.27
2022-10-01T07:57:22.205Z,70.32
2022-10-01T07:58:22.167Z,69.01
2022-10-01T07:59:22.142Z,70.43
2022-10-01T08:00:22.134Z,69.08
2022-10-01T08:01:22.187Z,69.86
2022-10-01T08:02:22.197Z,69.72
2022-10-01T08:03:22.126Z,69.47
2022-10-01T08:04:22.089Z,70.58
2022-10-01T08:05:22.304Z,71.62
2022-10-01T08:06:25.613Z,70.03
2022-10-01T08:07:22.083Z,69.34
2022-10-01T08:08:22.152Z,69.72
2022-10-01T08:09:22.488Z,71.67
2022-10-01T08:10:22.191Z,69.01
2022-10-01T08:11:22.409Z,70.05
2022-10-01T08:12:21.996Z,69.86
2022-10-01T08:13:22.057Z,67.79
2022-10-01T08:14:22.002Z,68.83
2022-10-01T08:15:22.079Z,69.63
2022-10-01T08:16:22.124Z,71.05
2022-10-01T08:17:24.055Z,70.79
2022-10-01T08:18:21.922Z,70.60
2022-10-01T08:19:21.945Z,70.63
2022-10-01T08:20:22.027Z,71.28
2022-10-01T08:21:21.874Z,69.70
2022-10-01T08:22:21.872Z,69.12
2022-10-01T08:23:21.890Z,71.34
2022-10-01T08:27:21.535Z,69.71
2022-10-01T08:28:21.391Z,69.34
2022-10-01T08:29:21.349Z,69.99
2022-10-01T08:30:21.382Z,70.37
2022-10-01T08:31:21.338Z,70.34
2022-10-01T08:32:21.313Z,70.11
2022-10-01T08:33:21.292Z,70.06
2022-10-01T08:34:21.287Z,69.05
2022-10-01T08:35:21.281Z,69.82
2022-10-01T08:36:21.264Z,68.71
2022-10-01T08:37:21.276Z,69.98
2022-10-01T08:38:21.232Z,69.45
2022-10-01T08:39:21.219Z,68.04
2022-10-01T08:40:21.231Z,70.77
2022-10-01T08:41:23.266Z,69.79
2022-10-01T08:42:21.178Z,69.40
2022-10-01T08:43:21.227Z,70.24
2022-10-01T08:44:22.289Z,69.84
2022-10-01T08:45:22.286Z,67.77
2022-10-01T08:46:22.255Z,70.55
2022-10-01T08:47:22.416Z,69.98
2022-10-01T08:48:22.296Z,70.95
2022-10-01T08:49:22.223Z,69.28
2022-10-01T08:50:22.223Z,69.15
2022-10-01T08:51:22.218Z,68.33
2022-10-01T08:52:22.193Z,70.55
2022-10-01T08:53:22.175Z,70.24
2022-10-01T08:54:22.205Z,70.87
2022-10-01T08:55:22.153Z,70.37
2022-10-01T08:56:22.149Z,68.68
2022-10-01T08:57:22.130Z,69.28
2022-10-01T08:58:22.119Z,69.09
2022-10-01T08:59:27.238Z,70.91
2022-10-01T09:00:22.107Z,70.31
2022-10-01T09:01:22.159Z,68.67
2022-10-01T09:02:22.094Z,68.79
2022-10-01T09:03:22.079Z,68.11
2022-10-01T09:04:22.123Z,69.62
2022-10-01T09:05:22.115Z,69.66
2022-10-01T09:06:22.045Z,68.99
2022-10-01T09:07:22.029Z,67.71
2022-10-01T09:08:22.027Z,68.67
2022-10-01T09:09:22.006Z,68.29
2022-10-01T09:10:22.024Z,69.97
2022-10-01T09:11:22.002Z,68.83
2022-10-01T09:12:21.969Z,69.59
2022-10-01T09:13:21.959Z,68.92
2022-10-01T09:14:22.010Z,66.90
2022-10-01T09:15:21.938Z,67.64
2022-10-01T09:16:22.050Z,68.47
2022-10-01T09:17:21.927Z,69.12
2022-10-01T09:18:21.894Z,68.61
2022-10-01T09:19:21.908Z,68.32
2022-10-01T09:20:21.888Z,70.04
2022-10-01T09:21:21.889Z,70.48
2022-10-01T09:22:21.862Z,69.62
2022-10-01T09:23:21.855Z,68.06
2022-10-01T09:24:21.836Z,70.45
2022-10-01T09:25:21.827Z,69.30
2022-10-01T09:26:25.602Z,68.80
2022-10-01T09:27:21.798Z,69.03
2022-10-01T09:28:21.854Z,69.24
2022-10-01T09:29:21.768Z,69.16
2022-10-01T09:30:21.783Z,69.57
2022-10-01T09:31:21.792Z,69.07
2022-10-01T09:32:21.770Z,69.69
2022-10-01T09:33:21.739Z,68.76
2022-10-01T09:34:21.734Z,67.72
2022-10-01T09:35:21.737Z,68.94
2022-10-01T09:36:21.709Z,68.71
2022-10-01T09:37:21.722Z,69.69
2022-10-01T09:38:21.691Z,69.01
2022-10-01T09:39:21.672Z,68.71
2022-10-01T09:40:21.664Z,68.99
2022-10-01T09:41:21.643Z,68.76
2022-10-01T09:42:21.660Z,68.87
2022-10-01T09:43:21.626Z,68.68
2022-10-01T09:44:21.611Z,70.42
2022-10-01T09:45:21.597Z,70.09
2022-10-01T09:46:21.627Z,69.66
2022-10-01T09:47:21.620Z,69.10
2022-10-01T09:48:21.587Z,68.26
2022-10-01T09:49:21.582Z,68.52
2022-10-01T09:50:21.546Z,68.91
2022-10-01T09:51:21.519Z,68.78
2022-10-01T09:52:21.595Z,68.90
2022-10-01T09:53:21.514Z,68.84
2022-10-01T09:54:21.509Z,67.77
2022-10-01T09:55:21.509Z,68.52
2022-10-01T09:56:21.496Z,69.05
2022-10-01T09:57:21.480Z,69.19
2022-10-01T09:58:21.499Z,68.29
2022-10-01T09:59:21.466Z,67.70
2022-10-01T10:00:21.456Z,67.71
2022-10-01T10:01:21.438Z,68.44
2022-10-01T10:02:21.569Z,66.78
2022-10-01T10:03:21.561Z,70.40
2022-10-01T10:04:21.402Z,69.55
2022-10-01T10:05:21.389Z,67.31
2022-10-01T10:06:21.421Z,67.85
2022-10-01T10:07:21.364Z,68.67
2022-10-01T10:08:21.355Z,67.88
2022-10-01T10:09:21.689Z,70.24
2022-10-01T10:10:25.438Z,68.96
2022-10-01T10:11:21.314Z,68.93
2022-10-01T10:12:21.349Z,69.48
2022-10-01T10:13:21.303Z,68.63
2022-10-01T10:14:33.554Z,68.14
2022-10-01T10:15:22.277Z,67.89
2022-10-01T10:16:21.344Z,68.25
2022-10-01T10:17:21.240Z,68.01
2022-10-01T10:18:23.919Z,69.38
2022-10-01T10:19:22.208Z,68.22
2022-10-01T10:20:21.240Z,68.63
2022-10-01T10:21:21.183Z,68.84
2022-10-01T10:22:21.178Z,69.65
2022-10-01T10:23:21.172Z,68.19
2022-10-01T10:24:21.156Z,66.75
2022-10-01T10:25:21.181Z,67.49
2022-10-01T10:26:21.142Z,68.25
2022-10-01T10:27:21.129Z,67.91
2022-10-01T10:28:21.172Z,68.89
2022-10-01T10:29:21.111Z,69.10
2022-10-01T10:30:21.093Z,69.89
2022-10-01T10:31:21.162Z,69.38
2022-10-01T10:32:21.064Z,69.18
2022-10-01T10:33:21.053Z,71.07
2022-10-01T10:34:21.039Z,69.55
2022-10-01T10:35:21.029Z,70.61
2022-10-01T10:36:21.036Z,70.09
2022-10-01T10:37:20.997Z,69.20
2022-10-01T10:38:21.002Z,68.16
2022-10-01T10:39:21.004Z,69.02
2022-10-01T10:40:22.756Z,69.01
2022-10-01T10:41:20.989Z,70.73
2022-10-01T10:42:20.941Z,69.27
2022-10-01T10:43:20.938Z,67.30
2022-10-01T10:44:20.947Z,71.06
2022-10-01T10:45:20.934Z,68.39
2022-10-01T10:46:20.962Z,68.95
2022-10-01T10:47:20.898Z,68.77
2022-10-01T10:48:20.872Z,68.87
2022-10-01T10:49:20.866Z,69.21
2022-10-01T10:50:20.873Z,68.31
2022-10-01T10:51:20.855Z,68.35
2022-10-01T10:52:20.832Z,70.34
2022-10-01T10:53:20.826Z,67.26
2022-10-01T10:54:20.815Z,68.61
2022-10-01T10:55:20.800Z,67.07
2022-10-01T10:56:20.823Z,69.15
2022-10-01T10:57:20.770Z,67.80
2022-10-01T10:58:20.763Z,68.55
2022-10-01T10:59:20.757Z,69.30
2022-10-01T11:00:20.744Z,67.54
2022-10-01T11:01:20.775Z,67.13
2022-10-01T11:02:20.746Z,67.31
2022-10-01T11:03:20.705Z,67.13
2022-10-01T11:04:21.373Z,67.10
2022-10-01T11:05:20.693Z,67.39
2022-10-01T11:06:20.683Z,68.36
2022-10-01T11:07:20.653Z,67.60
2022-10-01T11:08:20.660Z,65.74
2022-10-01T11:09:20.642Z,68.68
2022-10-01T11:10:20.614Z,66.28
2022-10-01T11:11:20.646Z,67.53
2022-10-01T11:12:20.597Z,67.56
2022-10-01T11:13:21.195Z,67.46
2022-10-01T11:14:23.602Z,68.06
2022-10-01T11:15:21.560Z,67.73
2022-10-01T11:16:20.633Z,67.27
2022-10-01T11:17:20.535Z,68.65
2022-10-01T11:18:20.547Z,67.62
2022-10-01T11:19:20.540Z,67.25
2022-10-01T11:20:21.168Z,66.94
2022-10-01T11:21:20.493Z,68.51
2022-10-01T11:22:20.532Z,66.86
2022-10-01T11:23:20.466Z,69.03
2022-10-01T11:24:20.477Z,67.09
2022-10-01T11:25:20.443Z,67.74
2022-10-01T11:26:20.456Z,68.28
2022-10-01T11:27:20.468Z,68.28
2022-10-01T11:28:20.482Z,66.96
2022-10-01T11:29:20.403Z,67.15
2022-10-01T11:30:20.382Z,67.59
2022-10-01T11:34:06.773Z,68.84
2022-10-01T11:35:06.879Z,67.94
2022-10-01T11:36:06.685Z,69.68
2022-10-01T11:37:06.616Z,68.88
2022-10-01T11:38:06.629Z,67.22
2022-10-01T11:39:06.637Z,68.49
2022-10-01T11:40:06.589Z,68.18
2022-10-01T11:41:06.612Z,69.37
2022-10-01T11:42:06.542Z,67.00
2022-10-01T11:43:06.576Z,68.48
2022-10-01T11:44:06.518Z,68.03
2022-10-01T11:45:06.556Z,69.03
2022-10-01T11:46:06.581Z,67.49
2022-10-01T11:47:06.524Z,67.48
2022-10-01T11:48:06.465Z,68.38
2022-10-01T11:49:06.529Z,68.09
2022-10-01T11:50:06.443Z,66.98
2022-10-01T11:51:06.471Z,67.44
2022-10-01T11:52:06.427Z,66.60
2022-10-01T11:53:06.415Z,66.30
2022-10-01T11:54:06.438Z,66.62
2022-10-01T11:55:06.400Z,67.44
2022-10-01T11:56:06.414Z,66.91
2022-10-01T11:57:06.375Z,69.19
2022-10-01T11:58:06.391Z,67.92
2022-10-01T11:59:06.343Z,68.50
2022-10-01T12:00:06.324Z,67.32
2022-10-01T12:01:06.396Z,66.83
2022-10-01T12:02:06.351Z,69.53
2022-10-01T12:03:06.298Z,67.23
2022-10-01T12:04:06.271Z,66.99
2022-10-01T12:05:06.369Z,67.39
2022-10-01T12:06:06.245Z,67.58
2022-10-01T12:07:06.276Z,67.91
2022-10-01T12:08:06.225Z,68.24
2022-10-01T12:09:06.306Z,67.30
2022-10-01T12:10:06.206Z,66.83
2022-10-01T12:11:06.194Z,68.33
2022-10-01T12:12:06.187Z,68.14
2022-10-01T12:13:06.166Z,66.00
2022-10-01T12:14:06.193Z,67.27
2022-10-01T12:15:07.148Z,69.31
2022-10-01T12:16:06.215Z,68.36
2022-10-01T12:17:06.159Z,67.80
2022-10-01T12:18:06.114Z,68.08
2022-10-01T12:19:06.123Z,67.33
2022-10-01T12:20:06.072Z,68.37
2022-10-01T12:21:06.069Z,69.01
2022-10-01T12:22:06.068Z,67.22
2022-10-01T12:23:06.069Z,68.34
2022-10-01T12:24:06.027Z,69.43
2022-10-01T12:25:06.037Z,66.87
2022-10-01T12:26:06.027Z,67.60
2022-10-01T12:27:05.993Z,66.25
2022-10-01T12:28:06.102Z,66.94
2022-10-01T12:29:05.974Z,66.20
2022-10-01T12:30:05.966Z,65.35
2022-10-01T12:31:06.014Z,65.46
2022-10-01T12:32:05.925Z,65.27
2022-10-01T12:33:05.944Z,67.34
2022-10-01T12:34:05.905Z,64.85
2022-10-01T12:35:05.904Z,67.83
2022-10-01T12:36:05.904Z,68.16
2022-10-01T12:37:05.873Z,65.63
2022-10-01T12:38:05.869Z,67.06
2022-10-01T12:39:05.850Z,66.27
2022-10-01T12:40:05.907Z,67.35
2022-10-01T12:41:05.831Z,66.69
2022-10-01T12:42:05.801Z,66.43
2022-10-01T12:43:05.838Z,66.89
2022-10-01T12:44:05.793Z,66.80
2022-10-01T12:45:05.783Z,66.77
2022-10-01T12:46:05.784Z,65.61
2022-10-01T12:47:05.769Z,66.23
2022-10-01T12:48:05.798Z,63.99
2022-10-01T12:49:05.774Z,66.86
2022-10-01T12:50:05.704Z,66.11
2022-10-01T12:51:05.720Z,66.20
2022-10-01T12:52:05.679Z,65.43
2022-10-01T12:53:05.680Z,65.94
2022-10-01T12:54:05.669Z,65.58
2022-10-01T12:55:05.689Z,65.80
2022-10-01T12:56:05.633Z,65.81
2022-10-01T12:57:05.631Z,65.14
2022-10-01T12:58:05.612Z,65.42
2022-10-01T12:59:05.693Z,66.23
2022-10-01T13:00:05.626Z,66.42
2022-10-01T13:01:05.636Z,67.71
2022-10-01T13:02:05.606Z,66.69
2022-10-01T13:03:05.593Z,66.36